sensor_id;sensor_type;location;lat;lon;timestamp;pressure;altitude;pressure_sealevel;temperature;humidity
19286;BME280;9776;50.798;6.430;2023-07-28T00:00:55;99238.53;;;18.73;77.13
19286;BME280;9776;50.798;6.430;2023-07-28T00:03:21;99246.78;;;18.72;77.28
19286;BME280;9776;50.798;6.430;2023-07-28T00:05:48;99242.84;;;18.74;77.23
19286;BME280;9776;50.798;6.430;2023-07-28T00:08:15;99248.19;;;18.74;77.41
19286;BME280;9776;50.798;6.430;2023-07-28T00:10:42;99253.63;;;18.67;77.44
19286;BME280;9776;50.798;6.430;2023-07-28T00:13:09;99249.34;;;18.66;77.53
19286;BME280;9776;50.798;6.430;2023-07-28T00:15:37;99257.56;;;18.65;77.61
19286;BME280;9776;50.798;6.430;2023-07-28T00:18:04;99248.38;;;18.61;78.03
19286;BME280;9776;50.798;6.430;2023-07-28T00:20:30;99260.69;;;18.62;77.96
19286;BME280;9776;50.798;6.430;2023-07-28T00:22:57;99259.78;;;18.68;78.06
19286;BME280;9776;50.798;6.430;2023-07-28T00:25:24;99255.63;;;18.72;77.90
19286;BME280;9776;50.798;6.430;2023-07-28T00:27:51;99250.66;;;18.76;78.09
19286;BME280;9776;50.798;6.430;2023-07-28T00:30:17;99261.09;;;18.77;77.94
19286;BME280;9776;50.798;6.430;2023-07-28T00:32:45;99244.13;;;18.83;77.94
19286;BME280;9776;50.798;6.430;2023-07-28T00:35:12;99239.53;;;18.90;77.85
19286;BME280;9776;50.798;6.430;2023-07-28T00:37:39;99237.53;;;18.86;77.76
19286;BME280;9776;50.798;6.430;2023-07-28T00:40:06;99239.16;;;18.87;78.16
19286;BME280;9776;50.798;6.430;2023-07-28T00:42:33;99242.41;;;18.89;77.85
19286;BME280;9776;50.798;6.430;2023-07-28T00:45:00;99240.69;;;18.94;77.97
19286;BME280;9776;50.798;6.430;2023-07-28T00:47:27;99241.13;;;18.91;78.18
19286;BME280;9776;50.798;6.430;2023-07-28T00:49:55;99244.38;;;18.93;78.12
19286;BME280;9776;50.798;6.430;2023-07-28T00:52:22;99236.50;;;18.98;77.89
19286;BME280;9776;50.798;6.430;2023-07-28T00:54:48;99243.38;;;19.06;77.93
19286;BME280;9776;50.798;6.430;2023-07-28T00:57:15;99247.44;;;19.08;77.76
19286;BME280;9776;50.798;6.430;2023-07-28T00:59:44;99240.47;;;19.07;77.75
19286;BME280;9776;50.798;6.430;2023-07-28T01:02:11;99238.97;;;19.11;77.92
19286;BME280;9776;50.798;6.430;2023-07-28T01:04:38;99235.25;;;19.12;77.89
19286;BME280;9776;50.798;6.430;2023-07-28T01:07:10;99231.28;;;19.15;77.82
19286;BME280;9776;50.798;6.430;2023-07-28T01:09:43;99241.16;;;19.14;78.04
19286;BME280;9776;50.798;6.430;2023-07-28T01:12:13;99244.66;;;19.15;78.08
19286;BME280;9776;50.798;6.430;2023-07-28T01:14:39;99241.63;;;19.11;78.10
19286;BME280;9776;50.798;6.430;2023-07-28T01:17:06;99237.56;;;19.09;78.10
19286;BME280;9776;50.798;6.430;2023-07-28T01:19:33;99230.69;;;19.01;78.37
19286;BME280;9776;50.798;6.430;2023-07-28T01:22:16;99230.09;;;18.99;78.16
19286;BME280;9776;50.798;6.430;2023-07-28T01:24:51;99239.50;;;19.02;78.29
19286;BME280;9776;50.798;6.430;2023-07-28T01:27:23;99239.06;;;19.05;78.70
19286;BME280;9776;50.798;6.430;2023-07-28T01:29:50;99239.31;;;19.03;78.49
19286;BME280;9776;50.798;6.430;2023-07-28T01:32:17;99244.41;;;19.05;78.67
19286;BME280;9776;50.798;6.430;2023-07-28T01:34:44;99240.94;;;19.04;78.83
19286;BME280;9776;50.798;6.430;2023-07-28T01:37:10;99240.94;;;19.04;78.65
19286;BME280;9776;50.798;6.430;2023-07-28T01:39:37;99240.47;;;19.07;78.63
19286;BME280;9776;50.798;6.430;2023-07-28T01:42:04;99240.03;;;19.10;78.69
19286;BME280;9776;50.798;6.430;2023-07-28T01:44:32;99234.19;;;19.13;78.54
19286;BME280;9776;50.798;6.430;2023-07-28T01:46:59;99235.47;;;19.11;78.67
19286;BME280;9776;50.798;6.430;2023-07-28T01:49:26;99235.13;;;19.07;78.83
19286;BME280;9776;50.798;6.430;2023-07-28T01:51:52;99234.69;;;19.10;78.90
19286;BME280;9776;50.798;6.430;2023-07-28T01:54:19;99232.66;;;19.06;78.85
19286;BME280;9776;50.798;6.430;2023-07-28T01:56:46;99237.34;;;19.10;78.97
19286;BME280;9776;50.798;6.430;2023-07-28T01:59:12;99234.19;;;19.13;79.01
19286;BME280;9776;50.798;6.430;2023-07-28T02:01:40;99234.69;;;19.10;79.00
19286;BME280;9776;50.798;6.430;2023-07-28T02:04:07;99234.88;;;19.09;79.02
19286;BME280;9776;50.798;6.430;2023-07-28T02:06:34;99238.13;;;19.11;79.08
19286;BME280;9776;50.798;6.430;2023-07-28T02:09:01;99229.31;;;19.10;79.10
19286;BME280;9776;50.798;6.430;2023-07-28T02:11:27;99234.06;;;19.08;79.15
19286;BME280;9776;50.798;6.430;2023-07-28T02:13:54;99229.31;;;19.10;79.11
19286;BME280;9776;50.798;6.430;2023-07-28T02:16:21;99230.31;;;19.39;78.54
19286;BME280;9776;50.798;6.430;2023-07-28T02:18:49;99237.00;;;19.18;80.01
19286;BME280;9776;50.798;6.430;2023-07-28T02:21:15;99231.75;;;19.12;79.91
19286;BME280;9776;50.798;6.430;2023-07-28T02:23:42;99237.09;;;19.12;79.97
19286;BME280;9776;50.798;6.430;2023-07-28T02:26:09;99227.44;;;19.11;79.97
19286;BME280;9776;50.798;6.430;2023-07-28T02:28:35;99231.75;;;19.12;79.79
19286;BME280;9776;50.798;6.430;2023-07-28T02:31:02;99232.78;;;19.11;79.72
19286;BME280;9776;50.798;6.430;2023-07-28T02:33:29;99222.56;;;19.08;79.72
19286;BME280;9776;50.798;6.430;2023-07-28T02:35:58;99223.97;;;19.10;79.87
19286;BME280;9776;50.798;6.430;2023-07-28T02:38:25;99224.75;;;19.11;79.99
19286;BME280;9776;50.798;6.430;2023-07-28T02:40:51;99233.25;;;19.08;79.58
19286;BME280;9776;50.798;6.430;2023-07-28T02:43:18;99228.34;;;19.05;79.84
19286;BME280;9776;50.798;6.430;2023-07-28T02:45:48;99231.03;;;19.05;79.90
19286;BME280;9776;50.798;6.430;2023-07-28T02:48:15;99231.03;;;19.05;79.77
19286;BME280;9776;50.798;6.430;2023-07-28T02:50:45;99232.31;;;19.02;79.81
19286;BME280;9776;50.798;6.430;2023-07-28T02:53:13;99235.44;;;18.99;80.04
19286;BME280;9776;50.798;6.430;2023-07-28T02:55:41;99240.13;;;19.04;80.05
19286;BME280;9776;50.798;6.430;2023-07-28T02:58:07;99239.50;;;19.02;80.02
19286;BME280;9776;50.798;6.430;2023-07-28T03:00:33;99241.50;;;19.06;79.88
19286;BME280;9776;50.798;6.430;2023-07-28T03:03:00;99240.94;;;19.04;79.92
19286;BME280;9776;50.798;6.430;2023-07-28T03:05:27;99240.13;;;19.04;79.92
19286;BME280;9776;50.798;6.430;2023-07-28T03:07:53;99247.91;;;19.05;79.95
19286;BME280;9776;50.798;6.430;2023-07-28T03:10:21;99254.44;;;19.09;80.10
19286;BME280;9776;50.798;6.430;2023-07-28T03:12:48;99258.13;;;19.08;80.15
19286;BME280;9776;50.798;6.430;2023-07-28T03:15:15;99246.63;;;19.08;80.27
19286;BME280;9776;50.798;6.430;2023-07-28T03:17:42;99248.25;;;19.09;80.28
19286;BME280;9776;50.798;6.430;2023-07-28T03:20:09;99247.22;;;19.10;80.05
19286;BME280;9776;50.798;6.430;2023-07-28T03:22:36;99252.78;;;19.08;80.33
19286;BME280;9776;50.798;6.430;2023-07-28T03:25:03;99253.16;;;19.12;80.17
19286;BME280;9776;50.798;6.430;2023-07-28T03:27:31;99251.50;;;19.11;80.18
19286;BME280;9776;50.798;6.430;2023-07-28T03:29:58;99253.16;;;19.12;80.43
19286;BME280;9776;50.798;6.430;2023-07-28T03:32:25;99255.81;;;19.12;80.33
19286;BME280;9776;50.798;6.430;2023-07-28T03:34:51;99258.75;;;19.10;80.57
19286;BME280;9776;50.798;6.430;2023-07-28T03:37:18;99257.47;;;19.13;80.36
19286;BME280;9776;50.798;6.430;2023-07-28T03:39:45;99261.41;;;19.10;80.70
19286;BME280;9776;50.798;6.430;2023-07-28T03:42:11;99258.13;;;19.08;80.82
19286;BME280;9776;50.798;6.430;2023-07-28T03:44:40;99259.31;;;19.12;80.65
19286;BME280;9776;50.798;6.430;2023-07-28T03:47:08;99258.13;;;19.08;80.78
19286;BME280;9776;50.798;6.430;2023-07-28T03:49:34;99252.78;;;19.08;80.98
19286;BME280;9776;50.798;6.430;2023-07-28T03:52:01;99261.88;;;19.07;81.06
19286;BME280;9776;50.798;6.430;2023-07-28T03:54:28;99267.22;;;19.07;81.02
19286;BME280;9776;50.798;6.430;2023-07-28T03:56:54;99263.72;;;19.07;81.30
19286;BME280;9776;50.798;6.430;2023-07-28T03:59:21;99273.63;;;19.06;81.27
19286;BME280;9776;50.798;6.430;2023-07-28T04:01:49;99268.38;;;19.11;81.18
19286;BME280;9776;50.798;6.430;2023-07-28T04:04:18;99264.09;;;19.10;80.87
19286;BME280;9776;50.798;6.430;2023-07-28T04:06:46;99267.81;;;19.09;81.34
19286;BME280;9776;50.798;6.430;2023-07-28T04:09:16;99269.28;;;19.05;81.44
19286;BME280;9776;50.798;6.430;2023-07-28T04:11:43;99267.06;;;19.02;81.45
19286;BME280;9776;50.798;6.430;2023-07-28T04:14:09;99265.00;;;19.04;81.54
19286;BME280;9776;50.798;6.430;2023-07-28T04:16:36;99271.75;;;19.07;81.67
19286;BME280;9776;50.798;6.430;2023-07-28T04:19:04;99269.44;;;19.10;81.53
19286;BME280;9776;50.798;6.430;2023-07-28T04:21:31;99265.13;;;19.09;81.77
19286;BME280;9776;50.798;6.430;2023-07-28T04:23:58;99261.88;;;19.07;81.68
19286;BME280;9776;50.798;6.430;2023-07-28T04:26:25;99263.03;;;19.11;81.89
19286;BME280;9776;50.798;6.430;2023-07-28T04:28:51;99266.28;;;19.13;81.94
19286;BME280;9776;50.798;6.430;2023-07-28T04:31:18;99270.03;;;19.12;81.99
19286;BME280;9776;50.798;6.430;2023-07-28T04:33:45;99273.28;;;19.14;81.85
19286;BME280;9776;50.798;6.430;2023-07-28T04:36:13;99270.59;;;19.14;81.89
19286;BME280;9776;50.798;6.430;2023-07-28T04:38:40;99278.63;;;19.14;81.96
19286;BME280;9776;50.798;6.430;2023-07-28T04:41:07;99281.88;;;19.16;81.82
19286;BME280;9776;50.798;6.430;2023-07-28T04:43:34;99279.81;;;19.18;82.09
19286;BME280;9776;50.798;6.430;2023-07-28T04:46:01;99280.94;;;19.22;82.09
19286;BME280;9776;50.798;6.430;2023-07-28T04:48:28;99286.44;;;19.27;81.92
19286;BME280;9776;50.798;6.430;2023-07-28T04:50:54;99291.66;;;19.34;81.54
19286;BME280;9776;50.798;6.430;2023-07-28T04:53:22;99287.28;;;19.40;81.67
19286;BME280;9776;50.798;6.430;2023-07-28T04:55:49;99286.25;;;19.41;81.51
19286;BME280;9776;50.798;6.430;2023-07-28T04:58:16;99286.25;;;19.41;81.47
19286;BME280;9776;50.798;6.430;2023-07-28T05:00:42;99291.72;;;19.46;81.29
19286;BME280;9776;50.798;6.430;2023-07-28T05:03:09;99299.53;;;19.47;81.57
19286;BME280;9776;50.798;6.430;2023-07-28T05:05:36;99297.66;;;19.48;81.22
19286;BME280;9776;50.798;6.430;2023-07-28T05:08:03;99302.19;;;19.47;81.54
19286;BME280;9776;50.798;6.430;2023-07-28T05:10:31;99312.66;;;19.49;81.34
19286;BME280;9776;50.798;6.430;2023-07-28T05:12:58;99298.13;;;19.45;81.39
19286;BME280;9776;50.798;6.430;2023-07-28T05:15:24;99306.94;;;19.45;81.25
19286;BME280;9776;50.798;6.430;2023-07-28T05:17:51;99315.59;;;19.47;81.22
19286;BME280;9776;50.798;6.430;2023-07-28T05:20:18;99312.44;;;19.50;81.35
19286;BME280;9776;50.798;6.430;2023-07-28T05:22:44;99303.59;;;19.50;81.34
19286;BME280;9776;50.798;6.430;2023-07-28T05:25:11;99303.97;;;19.53;81.22
19286;BME280;9776;50.798;6.430;2023-07-28T05:27:39;99301.59;;;19.57;81.18
19286;BME280;9776;50.798;6.430;2023-07-28T05:30:07;99311.75;;;19.66;81.07
19286;BME280;9776;50.798;6.430;2023-07-28T05:32:34;99312.31;;;19.68;80.96
19286;BME280;9776;50.798;6.430;2023-07-28T05:35:01;99306.84;;;19.75;80.91
19286;BME280;9776;50.798;6.430;2023-07-28T05:37:28;99307.44;;;19.77;80.72
19286;BME280;9776;50.798;6.430;2023-07-28T05:39:55;99320.94;;;19.82;80.67
19286;BME280;9776;50.798;6.430;2023-07-28T05:42:21;99307.09;;;19.85;80.55
19286;BME280;9776;50.798;6.430;2023-07-28T05:44:50;99322.44;;;19.90;80.51
19286;BME280;9776;50.798;6.430;2023-07-28T05:47:20;99325.59;;;19.87;80.64
19286;BME280;9776;50.798;6.430;2023-07-28T05:49:47;99329.66;;;19.89;80.45
19286;BME280;9776;50.798;6.430;2023-07-28T05:52:13;99329.78;;;19.94;80.33
19286;BME280;9776;50.798;6.430;2023-07-28T05:54:40;99339.44;;;19.95;80.19
19286;BME280;9776;50.798;6.430;2023-07-28T05:57:07;99338.63;;;19.95;80.31
19286;BME280;9776;50.798;6.430;2023-07-28T05:59:34;99340.03;;;19.97;80.22
19286;BME280;9776;50.798;6.430;2023-07-28T06:02:02;99345.38;;;19.97;79.94
19286;BME280;9776;50.798;6.430;2023-07-28T06:04:29;99346.56;;;20.01;79.85
19286;BME280;9776;50.798;6.430;2023-07-28T06:06:55;99346.91;;;20.05;79.84
19286;BME280;9776;50.798;6.430;2023-07-28T06:09:22;99349.81;;;20.03;79.96
19286;BME280;9776;50.798;6.430;2023-07-28T06:11:49;99347.00;;;20.10;79.68
19286;BME280;9776;50.798;6.430;2023-07-28T06:14:15;99352.16;;;20.11;79.71
19286;BME280;9776;50.798;6.430;2023-07-28T06:16:42;99350.25;;;20.12;79.54
19286;BME280;9776;50.798;6.430;2023-07-28T06:19:10;99351.06;;;20.12;79.51
19286;BME280;9776;50.798;6.430;2023-07-28T06:21:37;99354.69;;;20.18;79.13
19286;BME280;9776;50.798;6.430;2023-07-28T06:24:04;99350.72;;;20.20;79.14
19286;BME280;9776;50.798;6.430;2023-07-28T06:26:31;99357.25;;;20.24;78.98
19286;BME280;9776;50.798;6.430;2023-07-28T06:28:58;99358.66;;;20.27;78.82
19286;BME280;9776;50.798;6.430;2023-07-28T06:31:24;99354.81;;;20.34;78.53
19286;BME280;9776;50.798;6.430;2023-07-28T06:33:51;99352.91;;;20.47;78.22
19286;BME280;9776;50.798;6.430;2023-07-28T06:36:19;99363.03;;;20.56;77.83
19286;BME280;9776;50.798;6.430;2023-07-28T06:38:47;99365.00;;;20.61;77.71
19286;BME280;9776;50.798;6.430;2023-07-28T06:41:15;99367.53;;;20.67;77.50
19286;BME280;9776;50.798;6.430;2023-07-28T06:43:42;99375.13;;;20.70;77.22
19286;BME280;9776;50.798;6.430;2023-07-28T06:46:09;99373.34;;;20.76;77.17
19286;BME280;9776;50.798;6.430;2023-07-28T06:48:35;99369.97;;;20.80;77.07
19286;BME280;9776;50.798;6.430;2023-07-28T06:51:02;99376.81;;;20.88;76.66
19286;BME280;9776;50.798;6.430;2023-07-28T06:53:30;99374.13;;;20.88;76.77
19286;BME280;9776;50.798;6.430;2023-07-28T06:55:57;99378.09;;;20.85;76.75
19286;BME280;9776;50.798;6.430;2023-07-28T06:58:24;99387.41;;;20.94;76.43
19286;BME280;9776;50.798;6.430;2023-07-28T07:00:50;99390.31;;;20.93;76.36
19286;BME280;9776;50.798;6.430;2023-07-28T07:03:17;99386.69;;;20.99;76.18
19286;BME280;9776;50.798;6.430;2023-07-28T07:05:45;99392.59;;;21.01;76.01
19286;BME280;9776;50.798;6.430;2023-07-28T07:08:11;99398.56;;;21.03;75.78
19286;BME280;9776;50.798;6.430;2023-07-28T07:10:39;99402.06;;;21.04;75.74
19286;BME280;9776;50.798;6.430;2023-07-28T07:13:06;99403.47;;;21.06;75.64
19286;BME280;9776;50.798;6.430;2023-07-28T07:15:33;99403.53;;;21.23;75.30
19286;BME280;9776;50.798;6.430;2023-07-28T07:18:00;99409.81;;;21.45;74.53
19286;BME280;9776;50.798;6.430;2023-07-28T07:20:27;99409.59;;;21.46;74.52
19286;BME280;9776;50.798;6.430;2023-07-28T07:22:54;99414.38;;;21.44;74.68
19286;BME280;9776;50.798;6.430;2023-07-28T07:25:21;99416.50;;;21.42;74.77
19286;BME280;9776;50.798;6.430;2023-07-28T07:27:49;99417.53;;;21.41;74.94
19286;BME280;9776;50.798;6.430;2023-07-28T07:30:15;99427.91;;;21.49;74.69
19286;BME280;9776;50.798;6.430;2023-07-28T07:32:41;99427.91;;;21.49;74.63
19286;BME280;9776;50.798;6.430;2023-07-28T07:35:09;99431.31;;;21.45;74.90
19286;BME280;9776;50.798;6.430;2023-07-28T07:37:35;99424.16;;;21.50;74.69
19286;BME280;9776;50.798;6.430;2023-07-28T07:40:02;99424.34;;;21.61;74.28
19286;BME280;9776;50.798;6.430;2023-07-28T07:42:42;99425.94;;;21.62;73.90
19286;BME280;9776;50.798;6.430;2023-07-28T07:45:11;99426.63;;;21.69;73.92
19286;BME280;9776;50.798;6.430;2023-07-28T07:47:38;99430.94;;;21.70;73.92
19286;BME280;9776;50.798;6.430;2023-07-28T07:50:06;99425.31;;;21.71;74.02
19286;BME280;9776;50.798;6.430;2023-07-28T07:52:34;99427.78;;;21.73;73.98
19286;BME280;9776;50.798;6.430;2023-07-28T07:55:01;99434.41;;;21.98;73.52
19286;BME280;9776;50.798;6.430;2023-07-28T07:57:28;99434.13;;;22.33;72.41
19286;BME280;9776;50.798;6.430;2023-07-28T07:59:57;99422.56;;;22.54;71.86
19286;BME280;9776;50.798;6.430;2023-07-28T08:02:25;99437.47;;;22.62;71.53
19286;BME280;9776;50.798;6.430;2023-07-28T08:04:52;99428.31;;;22.63;71.28
19286;BME280;9776;50.798;6.430;2023-07-28T08:07:19;99434.94;;;22.72;70.86
19286;BME280;9776;50.798;6.430;2023-07-28T08:09:46;99435.22;;;22.97;70.04
19286;BME280;9776;50.798;6.430;2023-07-28T08:12:14;99439.88;;;23.02;69.91
19286;BME280;9776;50.798;6.430;2023-07-28T08:14:41;99437.41;;;23.22;69.04
19286;BME280;9776;50.798;6.430;2023-07-28T08:17:08;99434.97;;;23.42;68.19
19286;BME280;9776;50.798;6.430;2023-07-28T08:19:37;99438.44;;;23.69;67.39
19286;BME280;9776;50.798;6.430;2023-07-28T08:22:04;99436.22;;;24.30;65.86
19286;BME280;9776;50.798;6.430;2023-07-28T08:24:31;99434.44;;;24.93;63.65
19286;BME280;9776;50.798;6.430;2023-07-28T08:26:58;99433.56;;;26.05;61.04
19286;BME280;9776;50.798;6.430;2023-07-28T08:29:25;99426.13;;;26.81;58.30
19286;BME280;9776;50.798;6.430;2023-07-28T08:31:52;99431.28;;;26.62;58.71
19286;BME280;9776;50.798;6.430;2023-07-28T08:34:19;99439.09;;;26.74;58.08
19286;BME280;9776;50.798;6.430;2023-07-28T08:36:47;99430.56;;;27.16;57.20
19286;BME280;9776;50.798;6.430;2023-07-28T08:39:13;99426.47;;;27.62;55.75
19286;BME280;9776;50.798;6.430;2023-07-28T08:41:41;99437.16;;;27.48;55.57
19286;BME280;9776;50.798;6.430;2023-07-28T08:44:08;99438.69;;;27.16;55.94
19286;BME280;9776;50.798;6.430;2023-07-28T08:46:35;99452.34;;;26.90;56.75
19286;BME280;9776;50.798;6.430;2023-07-28T08:49:02;99447.53;;;26.62;56.94
19286;BME280;9776;50.798;6.430;2023-07-28T08:51:29;99438.91;;;26.45;57.43
19286;BME280;9776;50.798;6.430;2023-07-28T08:53:57;99448.84;;;26.75;56.70
19286;BME280;9776;50.798;6.430;2023-07-28T08:56:24;99441.03;;;26.63;56.40
19286;BME280;9776;50.798;6.430;2023-07-28T08:58:57;99442.63;;;26.74;55.90
19286;BME280;9776;50.798;6.430;2023-07-28T09:01:24;99440.16;;;26.88;55.75
19286;BME280;9776;50.798;6.430;2023-07-28T09:03:51;99438.25;;;26.93;55.63
19286;BME280;9776;50.798;6.430;2023-07-28T09:06:17;99448.59;;;27.35;54.32
19286;BME280;9776;50.798;6.430;2023-07-28T09:08:45;99444.22;;;27.39;54.12
19286;BME280;9776;50.798;6.430;2023-07-28T09:11:13;99448.22;;;27.03;54.60
19286;BME280;9776;50.798;6.430;2023-07-28T09:13:41;99455.91;;;26.66;55.40
19286;BME280;9776;50.798;6.430;2023-07-28T09:16:16;99458.94;;;26.54;55.44
19286;BME280;9776;50.798;6.430;2023-07-28T09:18:43;99458.94;;;26.54;55.33
19286;BME280;9776;50.798;6.430;2023-07-28T09:21:16;99452.66;;;26.84;54.54
19286;BME280;9776;50.798;6.430;2023-07-28T09:23:43;99455.03;;;26.95;53.92
19286;BME280;9776;50.798;6.430;2023-07-28T09:26:12;99459.41;;;26.86;54.37
19286;BME280;9776;50.798;6.430;2023-07-28T09:28:40;99451.31;;;26.61;54.72
19286;BME280;9776;50.798;6.430;2023-07-28T09:31:07;99449.13;;;26.73;54.38
19286;BME280;9776;50.798;6.430;2023-07-28T09:33:36;99452.03;;;26.97;54.01
19286;BME280;9776;50.798;6.430;2023-07-28T09:36:07;99454.31;;;27.78;51.79
19286;BME280;9776;50.798;6.430;2023-07-28T09:38:36;99453.19;;;28.94;49.40
19286;BME280;9776;50.798;6.430;2023-07-28T09:41:04;99440.81;;;30.46;46.02
19286;BME280;9776;50.798;6.430;2023-07-28T09:43:34;99442.47;;;31.73;43.50
19286;BME280;9776;50.798;6.430;2023-07-28T09:46:04;99443.53;;;31.27;44.30
19286;BME280;9776;50.798;6.430;2023-07-28T09:48:32;99442.66;;;30.64;45.39
19286;BME280;9776;50.798;6.430;2023-07-28T09:51:00;99446.00;;;30.28;45.82
19286;BME280;9776;50.798;6.430;2023-07-28T09:53:30;99441.03;;;30.03;46.61
19286;BME280;9776;50.798;6.430;2023-07-28T09:56:00;99440.16;;;30.21;45.91
19286;BME280;9776;50.798;6.430;2023-07-28T09:58:28;99434.69;;;30.67;44.91
19286;BME280;9776;50.798;6.430;2023-07-28T10:01:01;99441.31;;;30.88;44.65
19286;BME280;9776;50.798;6.430;2023-07-28T10:03:31;99436.03;;;31.33;43.90
19286;BME280;9776;50.798;6.430;2023-07-28T10:05:59;99454.72;;;31.26;43.81
19286;BME280;9776;50.798;6.430;2023-07-28T10:08:26;99448.47;;;31.25;43.16
19286;BME280;9776;50.798;6.430;2023-07-28T10:10:54;99441.53;;;30.38;44.90
19286;BME280;9776;50.798;6.430;2023-07-28T10:13:22;99436.00;;;29.41;46.55
19286;BME280;9776;50.798;6.430;2023-07-28T10:15:50;99439.19;;;29.05;47.32
19286;BME280;9776;50.798;6.430;2023-07-28T10:18:20;99434.41;;;29.16;46.91
19286;BME280;9776;50.798;6.430;2023-07-28T10:20:48;99446.88;;;29.59;46.32
19286;BME280;9776;50.798;6.430;2023-07-28T10:23:16;99449.81;;;29.63;45.87
19286;BME280;9776;50.798;6.430;2023-07-28T10:25:44;99459.59;;;30.15;44.50
19286;BME280;9776;50.798;6.430;2023-07-28T10:28:27;99460.22;;;29.93;44.75
19286;BME280;9776;50.798;6.430;2023-07-28T10:30:57;99455.84;;;29.60;45.57
19286;BME280;9776;50.798;6.430;2023-07-28T10:33:29;99456.41;;;28.96;46.90
19286;BME280;9776;50.798;6.430;2023-07-28T10:35:57;99448.81;;;29.16;46.92
19286;BME280;9776;50.798;6.430;2023-07-28T10:38:28;99452.03;;;29.61;45.55
19286;BME280;9776;50.798;6.430;2023-07-28T10:41:05;99459.06;;;29.24;46.42
19286;BME280;9776;50.798;6.430;2023-07-28T10:43:33;99463.41;;;28.78;47.52
19286;BME280;9776;50.798;6.430;2023-07-28T10:46:00;99458.47;;;28.33;48.58
19286;BME280;9776;50.798;6.430;2023-07-28T10:48:26;99464.53;;;27.86;49.11
19286;BME280;9776;50.798;6.430;2023-07-28T10:50:54;99461.03;;;27.46;50.12
19286;BME280;9776;50.798;6.430;2023-07-28T10:53:21;99455.66;;;27.41;50.38
19286;BME280;9776;50.798;6.430;2023-07-28T10:55:48;99459.94;;;29.76;45.25
19286;BME280;9776;50.798;6.430;2023-07-28T10:58:15;99459.13;;;32.07;41.01
19286;BME280;9776;50.798;6.430;2023-07-28T11:00:41;99460.41;;;32.10;40.74
19286;BME280;9776;50.798;6.430;2023-07-28T11:03:08;99455.16;;;31.69;41.22
19286;BME280;9776;50.798;6.430;2023-07-28T11:05:36;99464.41;;;31.32;41.91
19286;BME280;9776;50.798;6.430;2023-07-28T11:08:05;99461.06;;;31.35;41.83
19286;BME280;9776;50.798;6.430;2023-07-28T11:10:33;99459.25;;;32.02;40.66
19286;BME280;9776;50.798;6.430;2023-07-28T11:13:03;99451.47;;;32.48;39.72
19286;BME280;9776;50.798;6.430;2023-07-28T11:15:30;99453.47;;;32.96;38.72
19286;BME280;9776;50.798;6.430;2023-07-28T11:17:57;99451.94;;;33.46;38.16
19286;BME280;9776;50.798;6.430;2023-07-28T11:20:24;99448.91;;;33.91;37.32
19286;BME280;9776;50.798;6.430;2023-07-28T11:22:53;99456.78;;;34.56;36.57
19286;BME280;9776;50.798;6.430;2023-07-28T11:25:22;99447.75;;;36.05;34.24
19286;BME280;9776;50.798;6.430;2023-07-28T11:27:49;99440.25;;;35.94;34.19
19286;BME280;9776;50.798;6.430;2023-07-28T11:30:17;99444.00;;;35.89;34.02
19286;BME280;9776;50.798;6.430;2023-07-28T11:32:46;99435.81;;;35.68;34.03
19286;BME280;9776;50.798;6.430;2023-07-28T11:35:15;99442.06;;;35.27;34.72
19286;BME280;9776;50.798;6.430;2023-07-28T11:37:44;99442.09;;;34.22;36.22
19286;BME280;9776;50.798;6.430;2023-07-28T11:40:13;99435.88;;;33.79;36.91
19286;BME280;9776;50.798;6.430;2023-07-28T11:42:44;99439.53;;;33.23;37.69
19286;BME280;9776;50.798;6.430;2023-07-28T11:45:13;99441.41;;;32.27;39.12
19286;BME280;9776;50.798;6.430;2023-07-28T11:47:51;99441.38;;;31.38;40.35
19286;BME280;9776;50.798;6.430;2023-07-28T11:50:22;99442.44;;;30.74;41.65
19286;BME280;9776;50.798;6.430;2023-07-28T11:52:49;99444.81;;;30.34;42.44
19286;BME280;9776;50.798;6.430;2023-07-28T11:55:16;99442.34;;;30.19;42.26
19286;BME280;9776;50.798;6.430;2023-07-28T11:57:44;99441.13;;;29.98;42.82
19286;BME280;9776;50.798;6.430;2023-07-28T12:00:12;99435.63;;;29.66;43.51
19286;BME280;9776;50.798;6.430;2023-07-28T12:02:42;99434.22;;;29.50;43.85
19286;BME280;9776;50.798;6.430;2023-07-28T12:05:12;99437.44;;;29.70;43.53
19286;BME280;9776;50.798;6.430;2023-07-28T12:07:39;99435.66;;;29.79;43.50
19286;BME280;9776;50.798;6.430;2023-07-28T12:10:07;99438.56;;;29.69;43.29
19286;BME280;9776;50.798;6.430;2023-07-28T12:12:42;99432.22;;;29.74;43.21
19286;BME280;9776;50.798;6.430;2023-07-28T12:15:22;99430.81;;;29.76;43.39
19286;BME280;9776;50.798;6.430;2023-07-28T12:18:04;99431.22;;;29.51;43.95
19286;BME280;9776;50.798;6.430;2023-07-28T12:20:35;99441.91;;;29.29;44.39
19286;BME280;9776;50.798;6.430;2023-07-28T12:23:02;99439.53;;;29.22;44.73
19286;BME280;9776;50.798;6.430;2023-07-28T12:25:30;99438.69;;;29.22;44.81
19286;BME280;9776;50.798;6.430;2023-07-28T12:27:57;99437.06;;;29.21;44.89
19286;BME280;9776;50.798;6.430;2023-07-28T12:30:25;99438.94;;;29.25;45.12
19286;BME280;9776;50.798;6.430;2023-07-28T12:32:51;99429.91;;;29.30;45.09
19286;BME280;9776;50.798;6.430;2023-07-28T12:35:18;99429.81;;;28.74;45.92
19286;BME280;9776;50.798;6.430;2023-07-28T12:37:46;99439.00;;;28.49;47.04
19286;BME280;9776;50.798;6.430;2023-07-28T12:40:13;99446.53;;;28.29;47.50
19286;BME280;9776;50.798;6.430;2023-07-28T12:42:39;99449.88;;;28.21;47.60
19286;BME280;9776;50.798;6.430;2023-07-28T12:45:07;99456.59;;;27.94;48.48
19286;BME280;9776;50.798;6.430;2023-07-28T12:47:35;99462.56;;;27.57;49.66
19286;BME280;9776;50.798;6.430;2023-07-28T12:50:02;99448.50;;;27.55;49.95
19286;BME280;9776;50.798;6.430;2023-07-28T12:52:29;99452.03;;;27.51;49.99
19286;BME280;9776;50.798;6.430;2023-07-28T12:54:56;99454.84;;;27.31;50.49
19286;BME280;9776;50.798;6.430;2023-07-28T12:57:24;99464.03;;;27.35;50.25
19286;BME280;9776;50.798;6.430;2023-07-28T12:59:50;99448.69;;;27.20;50.39
19286;BME280;9776;50.798;6.430;2023-07-28T13:02:17;99449.00;;;27.09;50.93
19286;BME280;9776;50.798;6.430;2023-07-28T13:04:45;99455.84;;;27.01;51.21
19286;BME280;9776;50.798;6.430;2023-07-28T13:07:13;99456.69;;;26.81;52.02
19286;BME280;9776;50.798;6.430;2023-07-28T13:09:39;99456.47;;;26.63;52.37
19286;BME280;9776;50.798;6.430;2023-07-28T13:12:07;99454.63;;;26.48;52.86